Farisita, Colorado
Current Conditions -  °F | °C
As of 2:54 PM on Wednesday 28 Jan 2015 (Local Time) from KTAD Reporting Station
Clear Clear  
Wind Chill: 59°   Ceiling: Unl
Heat Index: 59°   Visibility: 10mi
Dew Point: 22°   Wind: 10mph
Humidity: 24%   Direction: 310°NW
Pressure: 30.06"   Gusts: 26mph
Location:  37.6936°N, 104.772°W
Report Text: KTAD 282154Z AUTO 31009G23KT 10SM CLR 15/M06 A3006 RMK AO2 PK WND 31028/2137 SLP143 T01501056
Loading
Personal Weather Stations






























Interactive Weather Map New forecast layout! Learn more

10-Day Weather Forecast

Advertisements
Track Severe Weather on mobile